createdAt,value
2023-02-15T00:01:44.255Z,140.20
2023-02-15T00:04:15.232Z,106.20
2023-02-15T00:06:43.090Z,148.50
2023-02-15T00:11:51.983Z,58.90
2023-02-15T00:14:22.013Z,53.17
2023-02-15T00:19:18.963Z,57.33
2023-02-15T00:24:15.562Z,79.07
2023-02-15T00:34:22.977Z,114.17
2023-02-15T00:36:50.001Z,68.53
2023-02-15T00:41:43.972Z,101.27
2023-02-15T00:49:13.010Z,65.55
2023-02-15T00:54:07.028Z,87.67
2023-02-15T00:59:04.123Z,170.97
2023-02-15T01:03:58.973Z,53.25
2023-02-15T01:08:53.228Z,98.40
2023-02-15T01:13:50.982Z,76.93
2023-02-15T01:21:16.040Z,170.70
2023-02-15T01:28:55.068Z,272.55
2023-02-15T01:31:25.215Z,186.43
2023-02-15T01:36:21.050Z,204.83
2023-02-15T01:41:18.007Z,133.47
2023-02-15T01:46:16.376Z,93.83
2023-02-15T01:51:14.057Z,354.07
2023-02-15T01:56:11.028Z,462.90
2023-02-15T02:03:33.066Z,525.90
2023-02-15T02:08:30.187Z,484.63
2023-02-15T02:13:27.007Z,354.00
2023-02-15T02:18:24.038Z,277.83
2023-02-15T02:34:04.226Z,318.03
2023-02-15T02:36:34.161Z,624.20
2023-02-15T02:41:31.020Z,588.60
2023-02-15T02:52:02.050Z,492.45
2023-02-15T02:56:56.144Z,120.87
2023-02-15T03:01:53.154Z,95.63
2023-02-15T03:09:15.014Z,96.07
2023-02-15T03:14:12.061Z,170.95
2023-02-15T03:19:09.046Z,114.30
2023-02-15T03:26:55.029Z,112.40
2023-02-15T03:29:25.152Z,51.13
2023-02-15T03:34:22.089Z,66.53
2023-02-15T03:39:19.104Z,116.67
2023-02-15T03:44:16.158Z,46.97
2023-02-15T03:57:20.399Z,159.37
2023-02-15T04:02:18.204Z,159.20
2023-02-15T04:15:33.628Z,134.60
2023-02-15T04:18:03.072Z,256.20
2023-02-15T04:23:25.729Z,206.43
2023-02-15T04:25:53.862Z,86.83
2023-02-15T04:28:21.997Z,74.17
2023-02-15T04:36:05.120Z,100.90
2023-02-15T04:38:35.107Z,140.03
2023-02-15T04:43:32.142Z,89.60
2023-02-15T04:48:29.069Z,44.10
2023-02-15T04:56:18.289Z,45.73
2023-02-15T05:01:22.566Z,34.03
2023-02-15T05:03:50.327Z,34.70
2023-02-15T05:06:18.153Z,33.10
2023-02-15T05:08:45.846Z,29.73
2023-02-15T05:11:13.568Z,46.80
2023-02-15T05:13:42.122Z,74.10
2023-02-15T05:16:10.005Z,32.30
2023-02-15T05:18:39.160Z,30.30
2023-02-15T05:21:06.881Z,30.93
2023-02-15T05:23:34.652Z,36.40
2023-02-15T05:26:19.904Z,28.60
2023-02-15T05:28:47.632Z,25.13
2023-02-15T05:31:16.804Z,26.60
2023-02-15T05:33:46.339Z,26.17
2023-02-15T05:36:14.341Z,32.87
2023-02-15T05:38:42.285Z,30.70
2023-02-15T05:41:11.054Z,31.53
2023-02-15T05:43:39.371Z,39.87
2023-02-15T05:46:08.028Z,35.10
2023-02-15T05:48:36.329Z,28.57
2023-02-15T05:51:06.856Z,33.37
2023-02-15T05:53:36.106Z,35.27
2023-02-15T05:56:04.671Z,39.27
2023-02-15T05:58:34.126Z,26.83
2023-02-15T06:01:02.010Z,30.10
2023-02-15T06:03:29.761Z,27.73
2023-02-15T06:05:57.487Z,29.43
2023-02-15T06:08:26.600Z,31.70
2023-02-15T06:10:54.441Z,29.33
2023-02-15T06:13:22.210Z,30.57
2023-02-15T06:15:49.917Z,24.73
2023-02-15T06:18:17.645Z,34.17
2023-02-15T06:20:47.544Z,29.40
2023-02-15T06:23:15.387Z,32.80
2023-02-15T06:25:44.887Z,31.57
2023-02-15T06:28:12.621Z,32.73
2023-02-15T06:30:40.319Z,25.47
2023-02-15T06:33:08.163Z,25.70
2023-02-15T06:35:35.951Z,24.50
2023-02-15T06:38:03.664Z,47.77
2023-02-15T06:40:31.404Z,29.60
2023-02-15T06:43:00.583Z,28.40
2023-02-15T06:45:28.418Z,58.87
2023-02-15T06:47:58.403Z,34.27
2023-02-15T06:50:26.174Z,27.60
2023-02-15T06:52:57.967Z,36.20
2023-02-15T06:55:25.610Z,30.50
2023-02-15T06:57:53.208Z,34.73
2023-02-15T07:05:18.204Z,35.83
2023-02-15T07:10:15.260Z,29.17
2023-02-15T07:15:12.272Z,25.23
2023-02-15T07:20:09.087Z,29.70
2023-02-15T07:25:06.269Z,33.27
2023-02-15T07:30:03.470Z,31.10
2023-02-15T07:35:02.183Z,31.70
2023-02-15T07:45:11.258Z,42.15
2023-02-15T07:47:41.205Z,25.97
2023-02-15T07:52:38.334Z,26.37
2023-02-15T08:02:57.181Z,26.17
2023-02-15T08:05:25.301Z,40.60
2023-02-15T08:10:24.454Z,33.00
2023-02-15T08:15:22.205Z,49.60
2023-02-15T08:20:19.393Z,23.15
2023-02-15T08:25:20.035Z,22.85
2023-02-15T08:30:32.944Z,64.63
2023-02-15T08:35:32.191Z,44.40
2023-02-15T08:40:29.100Z,21.17
2023-02-15T08:42:56.930Z,19.43
2023-02-15T08:45:26.513Z,41.10
2023-02-15T08:47:56.734Z,29.70
2023-02-15T08:50:24.531Z,25.50
2023-02-15T08:52:52.159Z,26.07
2023-02-15T08:55:22.370Z,25.00
2023-02-15T08:57:51.566Z,42.13
2023-02-15T09:00:20.824Z,51.00
2023-02-15T09:02:50.237Z,45.60
2023-02-15T09:07:47.187Z,28.67
2023-02-15T09:12:45.812Z,25.90
2023-02-15T09:15:15.207Z,24.60
2023-02-15T09:17:45.262Z,25.77
2023-02-15T09:20:14.655Z,31.00
2023-02-15T09:22:44.220Z,21.86
2023-02-15T09:27:41.288Z,25.00
2023-02-15T09:32:38.295Z,36.33
2023-02-15T09:35:07.922Z,22.53
2023-02-15T09:37:35.552Z,25.97
2023-02-15T09:40:03.561Z,41.23
2023-02-15T09:42:47.806Z,37.40
2023-02-15T09:45:25.840Z,31.03
2023-02-15T09:48:05.934Z,37.30
2023-02-15T09:50:40.969Z,33.50
2023-02-15T09:53:21.736Z,21.67
2023-02-15T09:55:53.644Z,24.77
2023-02-15T09:58:27.890Z,21.13
2023-02-15T10:01:01.008Z,36.30
2023-02-15T10:03:41.160Z,30.23
2023-02-15T10:06:34.263Z,36.77
2023-02-15T10:09:15.428Z,22.90
2023-02-15T10:11:53.597Z,29.40
2023-02-15T10:14:38.711Z,20.37
2023-02-15T10:17:15.058Z,27.93
2023-02-15T10:19:46.128Z,25.23
2023-02-15T10:22:24.282Z,21.87
2023-02-15T10:25:04.885Z,24.90
2023-02-15T10:27:35.002Z,24.10
2023-02-15T10:30:09.962Z,29.40
2023-02-15T10:32:42.374Z,22.20
2023-02-15T10:35:16.506Z,23.43
2023-02-15T10:37:58.091Z,32.30
2023-02-15T10:40:32.051Z,19.10
2023-02-15T10:43:10.062Z,19.20
2023-02-15T10:45:45.415Z,28.03
2023-02-15T10:48:24.060Z,20.00
2023-02-15T10:50:53.709Z,31.50
2023-02-15T10:53:39.178Z,25.97
2023-02-15T10:56:14.239Z,33.70
2023-02-15T10:58:52.877Z,30.50
2023-02-15T11:01:24.689Z,35.80
2023-02-15T11:04:22.039Z,21.17
2023-02-15T11:06:52.935Z,50.97
2023-02-15T11:09:24.167Z,26.57
2023-02-15T11:11:55.193Z,22.90
2023-02-15T11:14:29.925Z,23.23
2023-02-15T11:17:01.655Z,28.67
2023-02-15T11:19:33.698Z,24.00
2023-02-15T11:22:03.488Z,25.83
2023-02-15T11:24:36.084Z,28.17
2023-02-15T11:27:06.881Z,23.27
2023-02-15T11:29:38.870Z,22.90
2023-02-15T11:32:16.510Z,25.70
2023-02-15T11:34:51.480Z,20.77
2023-02-15T11:37:21.828Z,22.03
2023-02-15T11:39:52.769Z,22.90
2023-02-15T11:42:23.178Z,21.20
2023-02-15T11:44:58.679Z,23.83
2023-02-15T11:47:26.518Z,21.57
2023-02-15T11:49:54.122Z,19.63
2023-02-15T11:52:21.827Z,21.40
2023-02-15T11:54:52.292Z,22.03
2023-02-15T11:57:24.582Z,22.93
2023-02-15T11:59:56.138Z,23.47
2023-02-15T12:02:27.527Z,25.03
2023-02-15T12:04:58.624Z,23.57
2023-02-15T12:07:28.416Z,29.97
2023-02-15T12:10:05.013Z,22.70
2023-02-15T12:12:34.524Z,22.63
2023-02-15T12:15:03.498Z,23.60
2023-02-15T12:17:33.341Z,28.47
2023-02-15T12:20:03.510Z,24.40
2023-02-15T12:22:32.990Z,23.67
2023-02-15T12:25:04.920Z,25.37
2023-02-15T12:27:33.591Z,23.47
2023-02-15T12:30:03.273Z,24.73
2023-02-15T12:32:33.766Z,22.67
2023-02-15T12:35:04.046Z,21.37
2023-02-15T12:37:35.604Z,24.57
2023-02-15T12:40:21.610Z,22.50
2023-02-15T12:42:49.403Z,26.00
2023-02-15T12:45:26.758Z,24.17
2023-02-15T12:48:18.197Z,22.93
2023-02-15T12:50:46.613Z,21.97
2023-02-15T12:53:20.433Z,22.07
2023-02-15T12:55:58.309Z,22.47
2023-02-15T12:58:27.725Z,24.33
2023-02-15T13:01:06.864Z,26.07
2023-02-15T13:03:34.813Z,25.37
2023-02-15T13:06:08.215Z,28.43
2023-02-15T13:08:37.968Z,25.37
2023-02-15T13:11:10.903Z,29.90
2023-02-15T13:13:49.815Z,26.40
2023-02-15T13:16:28.535Z,27.80
2023-02-15T13:18:56.691Z,28.33
2023-02-15T13:21:26.130Z,31.67
2023-02-15T13:23:58.291Z,28.27
2023-02-15T13:29:06.258Z,31.63
2023-02-15T13:31:36.618Z,30.60
2023-02-15T13:34:11.767Z,29.40
2023-02-15T13:36:44.394Z,27.30
2023-02-15T13:39:20.537Z,26.40
2023-02-15T13:41:57.834Z,29.70
2023-02-15T13:44:38.256Z,30.77
2023-02-15T13:47:14.030Z,27.73
2023-02-15T13:49:52.386Z,25.53
2023-02-15T13:52:22.618Z,27.10
2023-02-15T13:55:09.108Z,25.97
2023-02-15T13:57:52.184Z,29.83
2023-02-15T14:00:25.173Z,27.30
2023-02-15T14:03:11.681Z,29.63
2023-02-15T14:05:59.576Z,30.50
2023-02-15T14:08:38.649Z,31.10
2023-02-15T14:11:10.912Z,28.87
2023-02-15T14:14:13.835Z,31.70
2023-02-15T14:17:05.473Z,30.97
2023-02-15T14:19:38.304Z,28.80
2023-02-15T14:22:12.749Z,31.20
2023-02-15T14:24:44.335Z,28.70
2023-02-15T14:27:21.494Z,28.93
2023-02-15T14:29:53.661Z,31.80
2023-02-15T14:32:29.075Z,30.10
2023-02-15T14:34:58.793Z,29.37
2023-02-15T14:37:35.582Z,29.53
2023-02-15T14:42:59.318Z,29.17
2023-02-15T14:45:33.781Z,30.53
2023-02-15T14:48:12.174Z,34.33
2023-02-15T14:50:50.500Z,32.33
2023-02-15T14:53:39.207Z,30.13
2023-02-15T14:56:22.957Z,33.87
2023-02-15T14:58:58.771Z,38.03
2023-02-15T15:01:28.506Z,41.03
2023-02-15T15:04:00.094Z,33.57
2023-02-15T15:06:29.510Z,36.50
2023-02-15T15:09:01.560Z,34.97
2023-02-15T15:11:48.658Z,35.73
2023-02-15T15:14:39.159Z,33.30
2023-02-15T15:17:08.099Z,30.37
2023-02-15T15:20:15.038Z,35.23
2023-02-15T15:22:43.984Z,34.20
2023-02-15T15:25:14.679Z,49.73
2023-02-15T15:27:51.161Z,38.73
2023-02-15T15:30:51.347Z,34.40
2023-02-15T15:33:53.922Z,34.13
2023-02-15T15:36:55.050Z,36.53
2023-02-15T15:39:53.012Z,36.90
2023-02-15T15:42:32.339Z,37.10
2023-02-15T15:45:37.304Z,37.60
2023-02-15T15:48:21.311Z,42.83
2023-02-15T15:50:57.254Z,42.00
2023-02-15T15:53:27.881Z,36.00
2023-02-15T15:55:59.740Z,36.23
2023-02-15T15:58:27.720Z,37.07
2023-02-15T16:00:59.074Z,38.63
2023-02-15T16:03:28.452Z,39.07
2023-02-15T16:05:56.554Z,41.17
2023-02-15T16:08:32.510Z,37.97
2023-02-15T16:11:00.775Z,37.23
2023-02-15T16:13:28.700Z,37.40
2023-02-15T16:15:57.433Z,43.13
2023-02-15T16:18:27.260Z,40.63
2023-02-15T16:20:57.286Z,47.70
2023-02-15T16:24:03.464Z,42.30
2023-02-15T16:26:55.478Z,41.57
2023-02-15T16:29:29.076Z,41.73
2023-02-15T16:32:04.260Z,44.73
2023-02-15T16:34:33.655Z,51.97
2023-02-15T16:37:17.987Z,53.17
2023-02-15T16:39:46.629Z,51.47
2023-02-15T16:42:16.412Z,50.97
2023-02-15T16:44:45.402Z,39.60
2023-02-15T16:47:19.686Z,44.17
2023-02-15T16:49:49.616Z,44.10
2023-02-15T16:52:21.963Z,45.67
2023-02-15T16:54:54.074Z,41.70
2023-02-15T16:57:24.931Z,39.50
2023-02-15T16:59:54.390Z,42.57
2023-02-15T17:02:49.423Z,41.53
2023-02-15T17:05:18.564Z,48.07
2023-02-15T17:07:53.043Z,48.97
2023-02-15T17:10:32.795Z,56.17
2023-02-15T17:13:06.347Z,69.77
2023-02-15T17:15:36.095Z,46.33
2023-02-15T17:18:06.251Z,58.60
2023-02-15T17:20:37.340Z,54.50
2023-02-15T17:23:05.837Z,75.93
2023-02-15T17:25:39.268Z,46.40
2023-02-15T17:28:17.794Z,86.40
2023-02-15T17:30:47.214Z,50.63
2023-02-15T17:33:23.536Z,55.37
2023-02-15T17:36:10.727Z,42.37
2023-02-15T17:38:40.079Z,60.03
2023-02-15T17:41:09.885Z,42.13
2023-02-15T17:43:40.860Z,86.83
2023-02-15T17:46:13.653Z,71.87
2023-02-15T17:48:43.768Z,85.90
2023-02-15T17:51:16.248Z,43.50
2023-02-15T17:54:04.675Z,47.20
2023-02-15T17:56:31.669Z,62.07
2023-02-15T17:59:00.867Z,94.00
2023-02-15T18:01:46.304Z,44.20
2023-02-15T18:04:33.339Z,55.57
2023-02-15T18:07:19.189Z,132.67
2023-02-15T18:10:04.516Z,97.27
2023-02-15T18:12:33.752Z,74.20
2023-02-15T18:15:03.785Z,57.03
2023-02-15T18:17:34.533Z,78.07
2023-02-15T18:20:05.343Z,83.67
2023-02-15T18:22:33.570Z,141.07
2023-02-15T18:25:01.418Z,82.37
2023-02-15T18:27:29.644Z,79.57
2023-02-15T18:29:57.510Z,127.80
2023-02-15T18:32:32.559Z,65.67
2023-02-15T18:35:02.494Z,53.27
2023-02-15T18:37:35.519Z,41.07
2023-02-15T18:40:05.644Z,49.30
2023-02-15T18:42:37.458Z,41.27
2023-02-15T18:45:16.972Z,37.37
2023-02-15T18:47:48.022Z,41.77
2023-02-15T18:50:16.986Z,63.00
2023-02-15T18:52:46.708Z,65.67
2023-02-15T18:55:18.899Z,62.47
2023-02-15T18:57:46.921Z,58.03
2023-02-15T19:00:19.413Z,57.97
2023-02-15T19:02:49.730Z,48.57
2023-02-15T19:05:18.557Z,47.93
2023-02-15T19:07:51.305Z,112.47
2023-02-15T19:10:20.988Z,96.33
2023-02-15T19:12:51.091Z,42.83
2023-02-15T19:15:20.901Z,68.43
2023-02-15T19:17:50.123Z,58.70
2023-02-15T19:20:19.822Z,49.80
2023-02-15T19:22:48.248Z,56.27
2023-02-15T19:25:22.564Z,66.73
2023-02-15T19:27:50.844Z,45.73
2023-02-15T19:33:19.903Z,76.87
2023-02-15T19:35:52.106Z,89.53
2023-02-15T19:38:35.072Z,53.73
2023-02-15T19:41:07.022Z,45.63
2023-02-15T19:43:49.467Z,56.10
2023-02-15T19:46:20.012Z,93.60
2023-02-15T19:48:51.754Z,61.97
2023-02-15T19:51:20.321Z,74.83
2023-02-15T19:53:49.203Z,55.93
2023-02-15T19:56:21.026Z,92.20
2023-02-15T19:58:50.770Z,51.27
2023-02-15T20:01:19.755Z,71.70
2023-02-15T20:03:51.333Z,40.87
2023-02-15T20:06:19.950Z,55.60
2023-02-15T20:08:53.415Z,46.60
2023-02-15T20:11:21.928Z,49.03
2023-02-15T20:13:50.366Z,38.23
2023-02-15T20:16:20.493Z,63.13
2023-02-15T20:18:52.045Z,68.17
2023-02-15T20:21:20.280Z,68.17
2023-02-15T20:23:47.956Z,53.03
2023-02-15T20:26:18.480Z,38.30
2023-02-15T20:28:48.634Z,71.67
2023-02-15T20:31:20.005Z,76.67
2023-02-15T20:33:56.597Z,56.37
2023-02-15T20:36:24.680Z,68.80
2023-02-15T20:38:54.171Z,63.13
2023-02-15T20:41:38.897Z,48.57
2023-02-15T20:44:24.682Z,71.37
2023-02-15T20:46:54.895Z,116.67
2023-02-15T20:49:27.312Z,106.03
2023-02-15T20:51:56.460Z,103.73
2023-02-15T20:54:25.957Z,149.10
2023-02-15T20:56:54.218Z,50.63
2023-02-15T20:59:25.285Z,58.27
2023-02-15T21:01:57.492Z,41.57
2023-02-15T21:04:30.123Z,58.27
2023-02-15T21:06:58.642Z,65.23
2023-02-15T21:09:27.590Z,90.50
2023-02-15T21:11:57.266Z,53.50
2023-02-15T21:14:29.548Z,129.47
2023-02-15T21:17:00.176Z,111.60
2023-02-15T21:19:30.271Z,39.10
2023-02-15T21:22:00.797Z,57.40
2023-02-15T21:24:29.928Z,39.67
2023-02-15T21:26:59.881Z,85.27
2023-02-15T21:29:29.333Z,48.67
2023-02-15T21:31:58.540Z,49.43
2023-02-15T21:34:26.458Z,70.43
2023-02-15T21:36:57.852Z,100.23
2023-02-15T21:39:28.208Z,112.57
2023-02-15T21:42:14.821Z,42.07
2023-02-15T21:45:00.179Z,34.33
2023-02-15T21:47:47.036Z,128.00
2023-02-15T21:50:33.768Z,72.80
2023-02-15T21:53:04.760Z,53.07
2023-02-15T21:55:33.240Z,53.50
2023-02-15T21:58:01.033Z,41.20
2023-02-15T22:00:30.997Z,146.67
2023-02-15T22:03:02.070Z,66.37
2023-02-15T22:05:32.413Z,100.87
2023-02-15T22:08:02.381Z,60.80
2023-02-15T22:10:32.581Z,67.47
2023-02-15T22:13:03.238Z,52.03
2023-02-15T22:15:35.554Z,116.60
2023-02-15T22:18:06.700Z,86.83
2023-02-15T22:20:34.638Z,97.67
2023-02-15T22:23:03.646Z,102.80
2023-02-15T22:25:36.093Z,49.53
2023-02-15T22:28:03.884Z,56.37
2023-02-15T22:30:33.199Z,70.27
2023-02-15T22:33:02.890Z,34.53
2023-02-15T22:35:32.823Z,40.23
2023-02-15T22:38:02.263Z,94.93
2023-02-15T22:40:34.788Z,37.07
2023-02-15T22:43:05.273Z,60.77
2023-02-15T22:45:35.668Z,70.87
2023-02-15T22:48:04.681Z,28.67
2023-02-15T22:50:36.951Z,30.73
2023-02-15T22:53:05.514Z,33.63
2023-02-15T22:55:39.840Z,32.70
2023-02-15T22:58:11.492Z,31.20
2023-02-15T23:00:41.873Z,39.10
2023-02-15T23:03:17.817Z,73.67
2023-02-15T23:05:48.489Z,58.97
2023-02-15T23:08:16.955Z,29.30
2023-02-15T23:10:56.172Z,26.37
2023-02-15T23:13:26.326Z,29.50
2023-02-15T23:15:57.345Z,42.50
2023-02-15T23:18:28.276Z,32.90
2023-02-15T23:20:58.743Z,53.30
2023-02-15T23:23:32.089Z,28.33
2023-02-15T23:26:05.925Z,124.03
2023-02-15T23:28:37.548Z,161.00
2023-02-15T23:31:13.025Z,125.40
2023-02-15T23:33:41.531Z,182.03
2023-02-15T23:36:23.387Z,189.77
2023-02-15T23:38:51.943Z,160.77
2023-02-15T23:41:23.432Z,139.60
2023-02-15T23:43:54.685Z,189.63
2023-02-15T23:46:28.372Z,202.57
2023-02-15T23:48:56.648Z,140.97
2023-02-15T23:51:30.034Z,224.13
2023-02-15T23:54:02.116Z,230.70
2023-02-15T23:56:32.096Z,116.43
2023-02-15T23:58:59.943Z,158.63
